Terminal Aerodrome Forecast
Issued by NWS Duluth, MN

Home | Current Version | Previous Version | Text Only | Print | Product List | Glossary On
Versions: 1 2 3 4 5 6 7 8 9 10 11 12 13
000
FTUS43 KDLH 020532
TAFINL
TAF
KINL 020532Z 0206/0306 VRB04KT P6SM SCT200
     FM022000 28010KT P6SM SCT200
     FM030000 24004KT P6SM BKN120=

USA.gov is the U.S. government's official web portal to all federal, state and local government web resources and services.